Time;durP1;ratioP1;P1;durP2;ratioP2;P2;SDS_P1;SDS_P2;PMS_P1;PMS_P2;Temp;Humidity;BMP_temperature;BMP_pressure;BME280_temperature;BME280_humidity;BME280_pressure;Samples;Min_cycle;Max_cycle;Signal;HPM_P1;HPM_P2
2023/09/23 00:01:57;;;;;;;79.27;38.07;;;13.60;99.90;;;;;;4977087;28;20438;-78
2023/09/23 00:04:23;;;;;;;80.10;39.07;;;13.60;99.90;;;;;;4976779;28;20569;-77
2023/09/23 00:06:50;;;;;;;79.27;35.90;;;13.50;99.90;;;;;;4977111;28;20191;-78
2023/09/23 00:09:18;;;;;;;80.07;39.40;;;13.50;99.90;;;;;;4976486;28;20447;-78
2023/09/23 00:11:43;;;;;;;82.27;39.00;;;13.60;99.90;;;;;;4976589;28;20933;-78
2023/09/23 00:14:11;;;;;;;78.70;37.87;;;13.50;99.90;;;;;;4976907;28;20406;-78
2023/09/23 00:16:37;;;;;;;75.80;30.90;;;13.50;99.90;;;;;;4959088;28;20599;-77
2023/09/23 00:19:02;;;;;;;74.30;27.67;;;13.50;99.90;;;;;;4976430;28;20509;-78
2023/09/23 00:21:28;;;;;;;73.40;23.67;;;13.40;99.90;;;;;;4976459;28;20191;-77
2023/09/23 00:23:57;;;;;;;76.67;25.20;;;13.50;99.90;;;;;;4976319;28;21047;-77
2023/09/23 00:26:23;;;;;;;76.73;27.57;;;13.50;99.90;;;;;;4976250;28;20175;-77
2023/09/23 00:28:49;;;;;;;75.50;28.70;;;13.50;99.90;;;;;;4976300;28;20455;-77
2023/09/23 00:31:16;;;;;;;77.50;28.30;;;13.40;99.90;;;;;;4975660;28;20448;-77
2023/09/23 00:33:42;;;;;;;76.97;34.23;;;13.40;99.90;;;;;;4976271;28;20410;-77
2023/09/23 00:36:09;;;;;;;77.17;33.70;;;13.30;99.90;;;;;;4975949;28;20258;-77
2023/09/23 00:38:36;;;;;;;83.33;40.60;;;13.20;99.90;;;;;;4976905;28;20817;-77
2023/09/23 00:41:03;;;;;;;80.17;36.13;;;13.20;99.90;;;;;;4975644;28;20407;-77
2023/09/23 00:43:32;;;;;;;79.80;39.10;;;13.30;99.90;;;;;;4975829;28;20466;-77
2023/09/23 00:45:59;;;;;;;80.57;39.23;;;13.30;99.90;;;;;;4975878;28;20470;-77
2023/09/23 00:48:25;;;;;;;76.67;32.33;;;13.30;99.90;;;;;;4975821;28;20466;-77
2023/09/23 00:50:53;;;;;;;77.80;33.47;;;13.40;99.90;;;;;;4975845;28;20750;-77
2023/09/23 00:53:20;;;;;;;82.77;46.17;;;13.40;99.90;;;;;;4958566;28;20423;-77
2023/09/23 00:55:52;;;;;;;83.17;49.47;;;13.30;99.90;;;;;;4976064;28;20498;-77
2023/09/23 00:58:21;;;;;;;83.00;50.17;;;13.20;99.90;;;;;;4975747;28;20388;-77
2023/09/23 01:00:48;;;;;;;83.23;44.87;;;13.20;99.90;;;;;;4975689;28;20418;-77
2023/09/23 01:03:18;;;;;;;80.50;41.70;;;13.20;99.90;;;;;;4975617;28;20434;-77
2023/09/23 01:05:45;;;;;;;75.80;28.30;;;13.20;99.90;;;;;;4976144;28;20418;-77
2023/09/23 01:08:20;;;;;;;75.00;26.27;;;13.30;99.90;;;;;;4975942;28;20844;-77
2023/09/23 01:10:49;;;;;;;79.07;38.43;;;13.10;99.90;;;;;;4959696;28;20407;-78
2023/09/23 01:13:20;;;;;;;79.00;38.53;;;13.00;99.90;;;;;;4976329;28;20799;-78
2023/09/23 01:15:46;;;;;;;80.97;43.73;;;13.00;99.90;;;;;;4976350;28;20396;-78
2023/09/23 01:18:13;;;;;;;89.20;44.47;;;12.90;99.90;;;;;;4975905;28;20481;-78
2023/09/23 01:20:42;;;;;;;81.40;38.20;;;12.90;99.90;;;;;;4975990;28;20764;-77
2023/09/23 01:23:10;;;;;;;81.73;37.23;;;12.90;99.90;;;;;;4975572;28;20836;-78
2023/09/23 01:25:39;;;;;;;78.37;34.37;;;12.90;99.90;;;;;;4976564;28;20773;-78
2023/09/23 01:28:11;;;;;;;80.70;38.33;;;12.90;99.90;;;;;;4975724;28;20494;-78
2023/09/23 01:30:37;;;;;;;79.87;40.90;;;12.80;99.90;;;;;;4976090;28;20395;-78
2023/09/23 01:33:07;;;;;;;85.60;54.13;;;12.70;99.90;;;;;;4975597;28;20459;-78
2023/09/23 01:35:33;;;;;;;84.53;55.03;;;12.70;99.90;;;;;;4959337;28;20415;-78
2023/09/23 01:38:05;;;;;;;85.47;56.77;;;12.60;99.90;;;;;;4975728;28;20410;-78
2023/09/23 01:40:31;;;;;;;85.17;53.87;;;12.60;99.90;;;;;;4976376;28;20893;-78
2023/09/23 01:42:58;;;;;;;89.20;60.97;;;12.60;99.90;;;;;;4975204;28;20435;-78
2023/09/23 01:45:25;;;;;;;83.57;49.50;;;12.70;99.90;;;;;;4975591;28;20415;-78
2023/09/23 01:47:52;;;;;;;83.50;49.03;;;12.70;99.90;;;;;;4976011;28;20901;-78
2023/09/23 01:50:18;;;;;;;80.77;42.87;;;12.70;99.90;;;;;;4975767;28;20550;-78
2023/09/23 01:52:47;;;;;;;83.00;43.03;;;12.70;99.90;;;;;;4975364;28;20893;-78
2023/09/23 01:55:15;;;;;;;82.43;45.77;;;12.80;99.90;;;;;;4977542;28;20462;-78
2023/09/23 01:57:41;;;;;;;79.23;38.33;;;12.90;99.90;;;;;;4978760;28;20415;-78
2023/09/23 02:00:14;;;;;;;79.90;40.90;;;12.90;99.90;;;;;;4979153;28;20848;-77
2023/09/23 02:02:41;;;;;;;81.10;36.77;;;12.90;99.90;;;;;;4961660;28;20493;-78
2023/09/23 02:05:07;;;;;;;82.97;44.83;;;12.90;99.90;;;;;;4961983;28;20442;-77
2023/09/23 02:07:33;;;;;;;80.50;42.20;;;12.90;99.90;;;;;;4979523;28;20411;-77
2023/09/23 02:09:59;;;;;;;82.57;48.73;;;13.00;99.90;;;;;;4978733;28;20451;-78
2023/09/23 02:12:24;;;;;;;86.90;59.47;;;12.90;99.90;;;;;;4978411;28;20193;-77
2023/09/23 02:14:52;;;;;;;84.30;53.67;;;12.90;99.90;;;;;;4961671;28;20235;-77
2023/09/23 02:17:19;;;;;;;85.17;55.63;;;13.00;99.90;;;;;;4978552;28;20594;-78
2023/09/23 02:19:45;;;;;;;89.30;51.83;;;12.90;99.90;;;;;;4979188;28;20411;-78
2023/09/23 02:22:11;;;;;;;87.77;59.93;;;12.90;99.90;;;;;;4960956;28;20545;-78
2023/09/23 02:24:36;;;;;;;88.50;62.70;;;12.90;99.90;;;;;;4978647;28;20438;-78
2023/09/23 02:27:03;;;;;;;85.33;52.77;;;12.80;99.90;;;;;;4978264;28;20179;-78
2023/09/23 02:29:30;;;;;;;82.77;49.67;;;12.70;99.90;;;;;;4978174;28;20638;-78
2023/09/23 02:31:56;;;;;;;81.77;45.63;;;12.70;99.90;;;;;;4978533;28;20423;-78
2023/09/23 02:34:22;;;;;;;81.90;43.90;;;12.70;99.90;;;;;;4978237;28;20438;-78
2023/09/23 02:36:51;;;;;;;81.50;45.03;;;12.60;99.90;;;;;;4961014;28;20411;-78
2023/09/23 02:39:19;;;;;;;83.30;41.80;;;12.60;99.90;;;;;;4978430;28;20179;-78
2023/09/23 02:41:48;;;;;;;84.13;51.23;;;12.50;99.90;;;;;;4979587;28;20490;-78
2023/09/23 02:44:18;;;;;;;82.23;47.13;;;12.40;99.90;;;;;;4978900;28;20407;-78
2023/09/23 02:46:45;;;;;;;84.93;54.27;;;12.40;99.90;;;;;;4979057;28;20732;-78
2023/09/23 02:49:12;;;;;;;82.43;48.20;;;12.40;99.90;;;;;;4978396;28;20451;-78
2023/09/23 02:51:38;;;;;;;84.87;51.97;;;12.30;99.90;;;;;;4978027;28;20964;-78
2023/09/23 02:54:05;;;;;;;85.43;52.27;;;12.20;99.90;;;;;;4978025;28;20407;-78
2023/09/23 02:56:32;;;;;;;84.50;51.73;;;12.20;99.90;;;;;;4961141;28;20543;-78
2023/09/23 02:58:59;;;;;;;90.77;49.07;;;12.30;99.90;;;;;;4961040;28;20419;-78
2023/09/23 03:01:25;;;;;;;81.27;44.13;;;12.20;99.90;;;;;;4978019;28;20806;-78
2023/09/23 03:03:51;;;;;;;86.80;47.43;;;12.20;99.90;;;;;;4960589;28;20422;-78
2023/09/23 03:06:18;;;;;;;84.13;48.73;;;12.30;99.90;;;;;;4977353;28;20411;-78
2023/09/23 03:08:47;;;;;;;80.83;44.37;;;12.20;99.90;;;;;;4978029;28;20565;-78
2023/09/23 03:11:17;;;;;;;80.37;39.90;;;12.20;99.90;;;;;;4978727;28;20407;-79
2023/09/23 03:13:44;;;;;;;82.53;41.43;;;12.30;99.90;;;;;;4977954;28;20414;-78
2023/09/23 03:16:13;;;;;;;85.50;44.23;;;12.20;99.90;;;;;;4960703;28;20419;-78
2023/09/23 03:18:54;;;;;;;85.07;53.53;;;12.30;99.90;;;;;;4977590;28;20416;-78
2023/09/23 03:21:23;;;;;;;81.67;45.57;;;12.30;99.90;;;;;;4960624;28;20438;-79
2023/09/23 03:23:48;;;;;;;82.97;46.73;;;12.30;99.90;;;;;;4977790;28;20439;-78
2023/09/23 03:26:19;;;;;;;86.10;57.23;;;12.40;99.90;;;;;;4977484;28;20464;-77
2023/09/23 03:28:46;;;;;;;87.47;52.05;;;12.40;99.90;;;;;;4977163;28;20191;-78
2023/09/23 03:31:14;;;;;;;87.18;56.42;;;12.40;99.90;;;;;;4977841;28;20168;-78
2023/09/23 03:33:42;;;;;;;82.00;44.50;;;12.50;99.90;;;;;;4977659;28;20603;-78
2023/09/23 03:36:16;;;;;;;83.35;39.72;;;12.50;99.90;;;;;;4977118;28;20496;-78
2023/09/23 03:38:42;;;;;;;82.23;36.47;;;12.40;99.90;;;;;;4977867;28;20628;-78
2023/09/23 03:41:11;;;;;;;81.30;36.78;;;12.30;99.90;;;;;;4976786;28;20426;-78
2023/09/23 03:43:37;;;;;;;81.77;38.87;;;12.30;99.90;;;;;;4976740;28;20254;-78
2023/09/23 03:46:10;;;;;;;80.37;38.97;;;12.20;99.90;;;;;;4976922;28;20399;-78
2023/09/23 03:48:39;;;;;;;79.70;41.13;;;12.10;99.90;;;;;;4976932;28;20436;-78
2023/09/23 03:51:09;;;;;;;81.77;46.57;;;12.10;99.90;;;;;;4976982;28;20406;-78
2023/09/23 03:53:40;;;;;;;83.87;48.23;;;12.00;99.90;;;;;;4976889;28;20435;-78
2023/09/23 03:56:10;;;;;;;83.47;46.77;;;12.00;99.90;;;;;;4959238;28;20404;-78
2023/09/23 03:58:38;;;;;;;83.35;48.10;;;11.90;99.90;;;;;;4977153;28;20418;-78
2023/09/23 04:01:08;;;;;;;83.60;45.47;;;11.90;99.90;;;;;;4976491;28;20168;-78
2023/09/23 04:03:34;;;;;;;81.07;39.30;;;11.90;99.90;;;;;;4977042;28;20511;-77
2023/09/23 04:06:05;;;;;;;88.77;56.10;;;11.80;99.90;;;;;;4976545;28;20435;-78
2023/09/23 04:08:31;;;;;;;83.97;48.97;;;11.80;99.90;;;;;;4958597;28;20244;-78
2023/09/23 04:11:00;;;;;;;85.33;51.57;;;11.80;99.90;;;;;;4976671;28;20912;-79
2023/09/23 04:13:25;;;;;;;84.78;54.55;;;11.60;99.90;;;;;;4977964;28;20175;-78
2023/09/23 04:15:53;;;;;;;83.17;48.90;;;11.60;99.90;;;;;;4977749;28;20160;-79
2023/09/23 04:18:18;;;;;;;94.13;56.33;;;11.70;99.90;;;;;;4958545;28;20168;-78
2023/09/23 04:20:45;;;;;;;86.10;54.20;;;11.60;99.90;;;;;;4976947;28;20259;-78
2023/09/23 04:23:11;;;;;;;83.88;48.53;;;11.60;99.90;;;;;;4976490;28;20195;-78
2023/09/23 04:25:37;;;;;;;85.27;47.80;;;11.60;99.90;;;;;;4976888;28;20250;-79
2023/09/23 04:28:03;;;;;;;85.30;51.03;;;11.60;99.90;;;;;;4976943;28;20171;-78
2023/09/23 04:30:28;;;;;;;85.07;54.53;;;11.70;99.90;;;;;;4976337;28;20203;-78
2023/09/23 04:32:55;;;;;;;82.93;48.27;;;11.60;99.90;;;;;;4976367;28;20216;-78
2023/09/23 04:35:20;;;;;;;81.70;42.35;;;11.60;99.90;;;;;;4976724;28;20168;-78
2023/09/23 04:37:46;;;;;;;77.63;33.80;;;11.60;99.90;;;;;;4976449;28;20213;-78
2023/09/23 04:40:13;;;;;;;81.00;38.83;;;11.70;99.90;;;;;;4976626;28;20255;-78
2023/09/23 04:42:41;;;;;;;79.10;34.80;;;11.70;99.90;;;;;;4976648;28;20211;-78
2023/09/23 04:45:10;;;;;;;81.00;38.72;;;11.70;99.90;;;;;;4959287;28;20172;-78
2023/09/23 04:47:39;;;;;;;79.68;34.85;;;11.70;99.90;;;;;;4976313;28;20167;-78
2023/09/23 04:50:12;;;;;;;81.32;35.65;;;11.60;99.90;;;;;;4976333;28;20242;-78
2023/09/23 04:52:38;;;;;;;77.40;32.67;;;11.60;99.90;;;;;;4976494;28;20752;-79
2023/09/23 04:55:04;;;;;;;78.07;33.90;;;11.70;99.90;;;;;;4959321;28;20216;-78
2023/09/23 04:57:29;;;;;;;83.60;30.27;;;11.60;99.90;;;;;;4976733;28;20942;-78
2023/09/23 04:59:57;;;;;;;79.87;31.13;;;11.60;99.90;;;;;;4958398;28;20818;-78
2023/09/23 05:02:23;;;;;;;81.47;38.35;;;11.60;99.90;;;;;;4975516;28;20700;-78
2023/09/23 05:04:53;;;;;;;80.60;42.73;;;11.60;99.90;;;;;;4975423;28;20175;-77
2023/09/23 05:07:24;;;;;;;84.13;45.13;;;11.60;99.90;;;;;;4975740;28;20498;-78
2023/09/23 05:09:50;;;;;;;85.13;53.60;;;11.50;99.90;;;;;;4976282;28;20737;-78
2023/09/23 05:12:16;;;;;;;83.90;46.80;;;11.50;99.90;;;;;;4975505;28;20215;-78
2023/09/23 05:14:42;;;;;;;80.77;41.70;;;11.50;99.90;;;;;;4975442;28;20168;-78
2023/09/23 05:17:13;;;;;;;84.25;50.75;;;11.40;99.90;;;;;;4957920;28;20412;-78
2023/09/23 05:19:39;;;;;;;82.30;46.20;;;11.40;99.90;;;;;;4975519;28;20156;-78
2023/09/23 05:22:05;;;;;;;81.90;46.13;;;11.40;99.90;;;;;;4958155;28;20214;-78
2023/09/23 05:24:31;;;;;;;78.43;38.03;;;11.40;99.90;;;;;;4975788;28;20152;-78
2023/09/23 05:26:56;;;;;;;76.77;30.10;;;11.40;99.90;;;;;;4975506;28;20490;-78
2023/09/23 05:29:22;;;;;;;79.17;30.47;;;11.30;99.90;;;;;;4976000;28;20251;-78
2023/09/23 05:31:48;;;;;;;78.00;24.93;;;11.40;99.90;;;;;;4961667;28;20187;-78
2023/09/23 05:34:15;;;;;;;77.67;29.60;;;11.40;99.90;;;;;;4962185;28;20955;-78
2023/09/23 05:36:41;;;;;;;79.18;27.65;;;11.30;99.90;;;;;;4979315;28;20160;-78
2023/09/23 05:39:07;;;;;;;75.03;24.58;;;11.40;99.90;;;;;;4979711;28;20170;-78
2023/09/23 05:41:33;;;;;;;81.60;32.57;;;11.50;99.90;;;;;;4978977;28;20550;-78
2023/09/23 05:43:59;;;;;;;75.57;27.60;;;11.60;99.90;;;;;;4980421;28;20243;-78
2023/09/23 05:46:27;;;;;;;76.53;24.45;;;11.60;99.90;;;;;;4963375;28;20174;-78
2023/09/23 05:49:18;;;;;;;80.28;33.20;;;11.60;99.90;;;;;;4962126;28;20199;-78
2023/09/23 05:51:47;;;;;;;76.53;29.90;;;11.60;99.90;;;;;;4966427;28;20286;-78
2023/09/23 05:54:15;;;;;;;79.10;28.88;;;11.60;99.90;;;;;;4979266;28;20809;-78
2023/09/23 05:56:43;;;;;;;77.28;28.33;;;11.50;99.90;;;;;;4979675;28;20250;-78
2023/09/23 05:59:10;;;;;;;80.67;32.10;;;11.50;99.90;;;;;;4979450;28;20171;-78
2023/09/23 06:01:40;;;;;;;79.05;30.35;;;11.50;99.90;;;;;;4979161;28;20510;-78
2023/09/23 06:04:09;;;;;;;84.60;29.92;;;11.50;99.90;;;;;;4979489;28;20525;-78
2023/09/23 06:06:38;;;;;;;78.55;31.30;;;11.60;99.90;;;;;;4978539;28;20214;-78
2023/09/23 06:09:06;;;;;;;81.60;36.07;;;11.70;99.90;;;;;;4978860;28;20192;-77
2023/09/23 06:11:32;;;;;;;80.15;32.15;;;11.80;99.90;;;;;;4978853;28;20429;-78
2023/09/23 06:13:58;;;;;;;77.35;30.58;;;11.70;99.90;;;;;;4978252;28;20176;-77
2023/09/23 06:16:23;;;;;;;77.07;30.53;;;11.70;99.90;;;;;;4978317;28;20593;-77
2023/09/23 06:18:49;;;;;;;79.27;34.20;;;11.70;99.90;;;;;;4978599;28;20701;-78
2023/09/23 06:21:15;;;;;;;83.00;35.47;;;11.90;99.90;;;;;;4977348;28;20275;-77
2023/09/23 06:23:46;;;;;;;81.50;36.10;;;11.90;99.90;;;;;;4977307;28;20271;-78
2023/09/23 06:26:12;;;;;;;82.88;37.85;;;11.90;99.90;;;;;;4977420;28;20148;-79
2023/09/23 06:28:38;;;;;;;78.70;34.60;;;11.90;99.90;;;;;;4977391;28;20202;-77
2023/09/23 06:31:06;;;;;;;82.77;39.60;;;12.00;99.90;;;;;;4977198;28;20411;-77
2023/09/23 06:33:32;;;;;;;81.50;35.35;;;12.00;99.90;;;;;;4977447;28;20512;-77
2023/09/23 06:36:05;;;;;;;85.63;34.43;;;12.00;99.90;;;;;;4977348;28;20174;-77
2023/09/23 06:38:32;;;;;;;80.70;32.25;;;12.00;99.90;;;;;;4959910;28;20671;-77
2023/09/23 06:40:58;;;;;;;79.47;32.97;;;12.10;99.90;;;;;;4976504;28;20172;-77
2023/09/23 06:43:24;;;;;;;84.90;34.77;;;12.10;99.90;;;;;;4977199;28;20529;-77
2023/09/23 06:45:57;;;;;;;78.80;31.80;;;12.20;99.90;;;;;;4977467;28;20167;-77
2023/09/23 06:48:23;;;;;;;79.47;33.97;;;12.20;99.90;;;;;;4960201;28;20160;-77
2023/09/23 06:51:00;;;;;;;80.00;34.57;;;12.30;99.90;;;;;;4977259;28;20435;-77
2023/09/23 06:53:26;;;;;;;83.05;38.78;;;12.30;99.90;;;;;;4977242;28;20399;-77
2023/09/23 06:55:51;;;;;;;79.53;34.73;;;12.40;99.90;;;;;;4977691;28;20218;-77
2023/09/23 06:58:17;;;;;;;81.73;34.83;;;12.40;99.90;;;;;;4959582;28;20415;-77
2023/09/23 07:00:43;;;;;;;79.15;36.45;;;12.50;99.90;;;;;;4977427;28;20247;-77
2023/09/23 07:03:09;;;;;;;81.60;40.13;;;12.60;99.90;;;;;;4976991;28;20266;-77
2023/09/23 07:05:34;;;;;;;81.57;43.27;;;12.60;99.90;;;;;;4977125;28;20163;-77
2023/09/23 07:08:01;;;;;;;80.03;38.07;;;12.70;99.90;;;;;;4977337;28;20170;-77
2023/09/23 07:10:27;;;;;;;83.37;45.83;;;12.80;99.90;;;;;;4959496;28;20577;-77
2023/09/23 07:12:53;;;;;;;89.67;45.00;;;12.90;99.90;;;;;;4976976;28;20936;-77
2023/09/23 07:15:19;;;;;;;80.27;38.63;;;12.90;99.90;;;;;;4977626;28;20431;-78
2023/09/23 07:17:44;;;;;;;84.40;43.50;;;13.00;99.90;;;;;;4976752;28;20411;-77
2023/09/23 07:20:11;;;;;;;85.47;48.37;;;13.00;99.90;;;;;;4977236;28;20164;-77
2023/09/23 07:22:36;;;;;;;83.93;46.60;;;13.10;99.90;;;;;;4976982;28;20212;-77
2023/09/23 07:25:04;;;;;;;84.60;51.07;;;13.10;99.90;;;;;;4976802;28;20942;-77
2023/09/23 07:27:30;;;;;;;90.73;43.43;;;13.20;99.90;;;;;;4977379;28;20179;-77
2023/09/23 07:29:56;;;;;;;83.57;48.53;;;13.30;99.90;;;;;;4977194;28;20443;-77
2023/09/23 07:32:22;;;;;;;82.77;44.23;;;13.40;99.90;;;;;;4977156;28;20179;-77
2023/09/23 07:34:47;;;;;;;82.17;43.70;;;13.50;99.90;;;;;;4977465;28;20498;-77
2023/09/23 07:37:13;;;;;;;84.37;39.77;;;13.60;99.90;;;;;;4959756;28;20168;-77
2023/09/23 07:39:40;;;;;;;85.30;41.13;;;13.60;99.90;;;;;;4977548;28;20179;-78
2023/09/23 07:42:06;;;;;;;85.83;44.87;;;13.60;99.90;;;;;;4977409;28;20184;-78
2023/09/23 07:44:31;;;;;;;84.80;41.20;;;13.60;99.90;;;;;;4977321;28;20920;-78
2023/09/23 07:47:00;;;;;;;79.03;34.67;;;13.60;99.90;;;;;;4977422;28;20487;-77
2023/09/23 07:49:25;;;;;;;83.43;47.90;;;13.60;99.90;;;;;;4976835;28;20195;-78
2023/09/23 07:51:53;;;;;;;81.80;38.63;;;13.60;99.90;;;;;;4977034;28;20423;-78
2023/09/23 07:54:18;;;;;;;76.00;29.90;;;13.80;99.90;;;;;;4976405;28;20218;-77
2023/09/23 07:56:44;;;;;;;79.47;31.27;;;13.90;99.90;;;;;;4976968;28;20905;-78
2023/09/23 07:59:10;;;;;;;81.50;40.63;;;13.90;99.90;;;;;;4977077;28;20168;-77
2023/09/23 08:01:36;;;;;;;76.73;31.90;;;14.00;99.90;;;;;;4976667;28;20423;-78
2023/09/23 08:04:01;;;;;;;79.23;28.67;;;14.00;99.90;;;;;;4976363;28;20215;-77
2023/09/23 08:06:27;;;;;;;76.77;24.70;;;14.10;99.90;;;;;;4976649;28;20211;-77
2023/09/23 08:08:52;;;;;;;74.27;21.43;;;14.10;99.90;;;;;;4976730;28;20648;-77
2023/09/23 08:11:18;;;;;;;76.73;26.53;;;14.10;99.90;;;;;;4976456;28;20187;-77
2023/09/23 08:13:44;;;;;;;78.50;27.77;;;14.10;99.90;;;;;;4976610;28;20170;-78
2023/09/23 08:16:09;;;;;;;78.57;31.43;;;14.20;99.90;;;;;;4976583;28;20247;-77
2023/09/23 08:18:35;;;;;;;72.80;21.97;;;14.30;99.90;;;;;;4959597;28;20589;-77
2023/09/23 08:21:01;;;;;;;73.57;20.07;;;14.40;99.90;;;;;;4976838;28;20172;-78
2023/09/23 08:23:27;;;;;;;73.87;18.80;;;14.50;99.90;;;;;;4976308;28;20534;-77
2023/09/23 08:25:54;;;;;;;77.10;22.13;;;14.50;99.90;;;;;;4976032;28;20590;-77
2023/09/23 08:28:19;;;;;;;80.63;24.23;;;14.50;99.90;;;;;;4976103;28;20422;-78
2023/09/23 08:30:46;;;;;;;74.10;22.23;;;14.50;99.90;;;;;;4975951;28;20490;-77
2023/09/23 08:33:12;;;;;;;76.70;21.97;;;14.40;99.90;;;;;;4976300;28;20789;-77
2023/09/23 08:35:38;;;;;;;72.47;18.30;;;14.40;99.90;;;;;;4959116;28;20395;-77
2023/09/23 08:38:04;;;;;;;72.27;18.27;;;14.50;99.90;;;;;;4976405;28;20223;-77
2023/09/23 08:40:34;;;;;;;79.80;22.30;;;14.60;99.90;;;;;;4975899;28;20399;-77
2023/09/23 08:43:04;;;;;;;73.67;23.13;;;14.70;99.90;;;;;;4976317;28;20203;-77
2023/09/23 08:45:31;;;;;;;72.67;21.03;;;14.70;99.90;;;;;;4959279;28;21019;-77
2023/09/23 08:48:01;;;;;;;75.70;24.73;;;14.80;99.90;;;;;;4975610;28;20935;-78
2023/09/23 08:50:27;;;;;;;73.43;20.13;;;15.00;99.90;;;;;;4975987;28;20458;-78
2023/09/23 08:52:54;;;;;;;75.47;23.10;;;15.20;99.90;;;;;;4975847;28;20419;-78
2023/09/23 08:55:22;;;;;;;76.77;21.37;;;15.40;99.90;;;;;;4976035;28;20407;-78
2023/09/23 08:57:48;;;;;;;72.17;13.90;;;15.50;99.90;;;;;;4976616;28;20774;-77
2023/09/23 09:00:17;;;;;;;70.50;11.33;;;15.70;99.90;;;;;;4975922;28;20407;-78
2023/09/23 09:02:43;;;;;;;69.83;11.87;;;15.80;99.90;;;;;;4976021;28;20610;-78
2023/09/23 09:05:09;;;;;;;71.53;12.07;;;15.90;97.60;;;;;;4975173;28;20447;-78
2023/09/23 09:07:36;;;;;;;73.80;10.97;;;15.80;91.70;;;;;;4976081;28;20180;-78
2023/09/23 09:10:02;;;;;;;68.40;5.57;;;15.90;96.70;;;;;;4975599;28;20995;-78
2023/09/23 09:12:30;;;;;;;68.00;5.40;;;16.00;94.30;;;;;;4975587;28;20436;-78
2023/09/23 09:14:56;;;;;;;69.47;6.43;;;15.90;87.90;;;;;;4957879;28;20419;-77
2023/09/23 09:17:21;;;;;;;69.87;6.20;;;15.90;85.50;;;;;;4975296;28;20434;-78
2023/09/23 09:19:49;;;;;;;70.20;5.60;;;15.80;85.20;;;;;;4975847;28;20172;-77
2023/09/23 09:22:15;;;;;;;69.73;5.90;;;15.80;87.10;;;;;;4957688;28;20199;-77
2023/09/23 09:24:41;;;;;;;70.23;7.20;;;15.70;85.60;;;;;;4975181;28;20415;-77
2023/09/23 09:27:14;;;;;;;69.70;6.77;;;15.80;85.20;;;;;;5060802;23;20502;-78
2023/09/23 09:29:44;;;;;;;67.60;5.80;;;15.80;78.70;;;;;;4994384;28;20219;-77
2023/09/23 09:32:11;;;;;;;67.70;5.77;;;15.90;81.90;;;;;;4983247;28;20439;-77
2023/09/23 09:34:47;;;;;;;69.83;6.07;;;16.00;77.70;;;;;;4957465;28;20408;-77
2023/09/23 09:37:14;;;;;;;70.47;11.73;;;16.20;69.10;;;;;;4957884;28;20415;-77
2023/09/23 09:40:11;;;;;;;70.77;14.13;;;16.30;63.30;;;;;;4975188;28;20418;-80
2023/09/23 09:42:40;;;;;;;72.10;14.43;;;16.40;51.70;;;;;;4975074;28;20427;-77
2023/09/23 09:45:08;;;;;;;72.87;15.20;;;16.50;41.60;;;;;;4975053;28;20407;-77
2023/09/23 09:47:35;;;;;;;70.50;14.03;;;16.60;38.10;;;;;;4975715;28;20418;-77
2023/09/23 09:50:04;;;;;;;70.63;10.70;;;16.80;36.30;;;;;;4975114;28;20451;-77
2023/09/23 09:52:32;;;;;;;76.03;8.37;;;16.80;28.10;;;;;;4975472;28;20462;-77
2023/09/23 09:55:02;;;;;;;69.50;8.90;;;16.80;24.10;;;;;;4975218;28;20812;-77
2023/09/23 09:57:29;;;;;;;70.97;8.80;;;16.80;35.40;;;;;;4975594;28;20419;-77
2023/09/23 10:00:00;;;;;;;68.30;4.63;;;17.10;29.80;;;;;;4975481;28;20407;-77
2023/09/23 10:02:26;;;;;;;68.20;4.57;;;17.30;19.50;;;;;;4974946;28;20442;-77
2023/09/23 10:04:53;;;;;;;73.43;4.47;;;17.50;4.00;;;;;;4957840;28;20426;-77
2023/09/23 10:07:22;;;;;;;70.40;6.30;;;17.70;1.00;;;;;;4975109;28;20414;-77
2023/09/23 10:09:55;;;;;;;69.30;6.17;;;18.00;1.00;;;;;;4975632;28;20447;-77
2023/09/23 10:12:25;;;;;;;68.87;6.50;;;18.30;1.00;;;;;;4976315;28;20415;-77
2023/09/23 10:14:58;;;;;;;68.90;5.17;;;18.50;1.00;;;;;;4976429;28;20813;-77
2023/09/23 10:17:31;;;;;;;67.90;5.40;;;18.20;1.00;;;;;;4978334;28;20399;-78
2023/09/23 10:19:58;;;;;;;68.47;6.00;;;18.10;1.00;;;;;;4962066;28;20822;-78
2023/09/23 10:22:27;;;;;;;68.97;5.50;;;18.00;1.00;;;;;;4978186;28;20515;-78
2023/09/23 10:25:00;;;;;;;71.33;6.07;;;18.00;1.00;;;;;;4978340;28;20439;-78
2023/09/23 10:27:29;;;;;;;68.63;4.80;;;18.00;1.00;;;;;;4978687;28;20415;-78
2023/09/23 10:29:55;;;;;;;68.57;5.20;;;18.10;1.00;;;;;;4960737;28;20505;-78
2023/09/23 10:32:21;;;;;;;68.77;5.83;;;18.20;1.00;;;;;;4978666;28;20423;-78
2023/09/23 10:34:53;;;;;;;72.40;4.20;;;18.40;1.00;;;;;;4978505;28;20494;-78
2023/09/23 10:37:30;;;;;;;68.37;3.50;;;18.60;1.00;;;;;;4978263;28;20398;-78
2023/09/23 10:40:08;;;;;;;68.50;3.73;;;18.60;1.00;;;;;;4978019;28;20392;-78
2023/09/23 10:42:35;;;;;;;67.13;3.40;;;18.60;1.00;;;;;;4960695;28;20443;-78
2023/09/23 10:45:01;;;;;;;71.67;5.20;;;18.40;1.00;;;;;;4978334;28;20415;-78
2023/09/23 10:47:27;;;;;;;67.40;4.70;;;18.20;1.00;;;;;;4977813;28;20422;-78
2023/09/23 10:49:53;;;;;;;68.60;5.50;;;18.10;1.00;;;;;;4977911;28;20187;-77
2023/09/23 10:52:20;;;;;;;67.77;4.93;;;18.10;1.00;;;;;;4978283;28;20510;-78
2023/09/23 10:54:48;;;;;;;68.67;5.20;;;18.20;1.00;;;;;;4978834;28;20704;-78
2023/09/23 10:57:13;;;;;;;69.47;4.47;;;18.40;1.00;;;;;;4977937;28;20412;-77
2023/09/23 10:59:43;;;;;;;72.00;4.33;;;18.50;1.00;;;;;;4977943;28;20390;-77
2023/09/23 11:02:10;;;;;;;70.50;4.30;;;18.60;1.00;;;;;;4978082;28;20262;-77
2023/09/23 11:04:35;;;;;;;69.00;3.30;;;18.80;1.00;;;;;;4977559;28;20411;-77
2023/09/23 11:07:02;;;;;;;68.50;3.70;;;19.00;1.00;;;;;;4978026;28;20880;-77
2023/09/23 11:09:28;;;;;;;67.33;3.70;;;19.00;1.00;;;;;;4977126;28;20237;-77
2023/09/23 11:11:54;;;;;;;68.43;3.30;;;18.80;1.00;;;;;;4976858;28;20424;-77
2023/09/23 11:14:23;;;;;;;68.30;3.53;;;18.70;1.00;;;;;;4977219;28;20415;-77
2023/09/23 11:16:51;;;;;;;68.57;3.30;;;18.80;1.00;;;;;;4977144;28;20399;-77
2023/09/23 11:19:24;;;;;;;68.10;4.00;;;18.80;1.00;;;;;;4977520;28;20923;-77
2023/09/23 11:21:50;;;;;;;67.20;3.47;;;18.90;1.00;;;;;;4960026;28;20470;-78
2023/09/23 11:24:15;;;;;;;68.57;3.47;;;18.60;1.00;;;;;;4977192;28;20400;-77
2023/09/23 11:26:41;;;;;;;68.13;3.57;;;18.50;1.00;;;;;;4976693;28;20180;-77
2023/09/23 11:29:08;;;;;;;72.00;3.80;;;18.40;1.00;;;;;;4976423;28;20214;-79
2023/09/23 11:31:34;;;;;;;67.70;3.30;;;18.40;1.00;;;;;;4977411;28;20415;-77
2023/09/23 11:34:00;;;;;;;68.33;3.70;;;18.50;1.00;;;;;;4976750;28;20515;-77
2023/09/23 11:36:25;;;;;;;67.90;2.90;;;18.70;1.00;;;;;;4959417;28;20506;-77
2023/09/23 11:38:51;;;;;;;68.50;4.07;;;18.90;1.00;;;;;;4976796;28;20176;-77
2023/09/23 11:41:17;;;;;;;68.40;3.80;;;19.10;1.00;;;;;;4976737;28;20183;-77
2023/09/23 11:43:44;;;;;;;68.50;3.30;;;19.10;1.00;;;;;;4960312;28;20256;-77
2023/09/23 11:46:11;;;;;;;68.53;3.20;;;19.30;1.00;;;;;;4976292;28;20408;-78
2023/09/23 11:48:37;;;;;;;68.87;5.60;;;19.40;1.00;;;;;;4976600;28;20395;-78
2023/09/23 11:51:03;;;;;;;71.23;11.77;;;19.50;1.00;;;;;;4976762;28;20404;-78
2023/09/23 11:53:29;;;;;;;70.60;6.60;;;19.50;1.00;;;;;;4976744;28;20466;-78
2023/09/23 11:55:54;;;;;;;69.90;8.23;;;19.50;1.00;;;;;;4976385;28;20175;-77
2023/09/23 11:58:20;;;;;;;69.50;8.03;;;19.70;1.00;;;;;;4976821;28;20723;-78
2023/09/23 12:00:49;;;;;;;74.27;16.70;;;19.60;1.00;;;;;;4959167;28;20267;-78
2023/09/23 12:03:15;;;;;;;75.90;24.30;;;19.50;1.00;;;;;;4976530;28;20195;-78
2023/09/23 12:05:41;;;;;;;74.67;19.33;;;19.60;1.00;;;;;;4976013;28;20764;-78
2023/09/23 12:08:09;;;;;;;72.97;15.43;;;19.70;1.00;;;;;;4959355;28;20176;-78
2023/09/23 12:10:35;;;;;;;77.00;19.40;;;19.70;1.00;;;;;;4959553;28;20447;-78
2023/09/23 12:13:05;;;;;;;77.57;30.23;;;19.70;1.00;;;;;;4976604;28;20820;-78
2023/09/23 12:15:34;;;;;;;76.97;28.97;;;19.90;1.00;;;;;;4959953;28;20545;-78
2023/09/23 12:18:01;;;;;;;76.97;30.00;;;19.90;1.00;;;;;;4977326;28;20438;-78
2023/09/23 12:20:26;;;;;;;81.37;32.90;;;19.90;1.00;;;;;;4976797;28;20403;-78
2023/09/23 12:22:52;;;;;;;81.47;29.80;;;19.80;1.00;;;;;;4976081;28;20434;-78
2023/09/23 12:25:18;;;;;;;79.93;32.60;;;19.80;1.00;;;;;;4976167;28;20434;-78
2023/09/23 12:27:44;;;;;;;78.40;31.20;;;19.80;1.00;;;;;;4976714;28;20517;-77
2023/09/23 12:30:10;;;;;;;76.63;27.97;;;19.60;1.00;;;;;;4958585;28;20192;-78
2023/09/23 12:32:36;;;;;;;76.47;21.43;;;19.50;1.00;;;;;;4975948;28;20188;-77